Portada
METAR-TAF:

METAR-TAF

Aeroports :

Al-Kuwait, Kuwait

latitud: 29-13N, longitud: 047-59E, altitud: 55 m

Observació

L'informe es va fer fa 28 minuts, a les 01:00 UTC
Vent 9 kt del Nord
Temperatura 40°C
Humitat 17%
Pressió 995 hPa
Visibilitat 10 km o més
sense núvols per sota de 1500 mi sense presència de cumulonimbus.

METAR: OKBK 270100Z 35009KT CAVOK 40/10 Q0995 NOSIG

Hora: 04:28 (01:28 UTC)

Pronòstic

L'informe es va fer fa 2 hores i 43 minuts, a les 22:45 UTC
Pronòstic vàlid del 27 a les 00 UTC al 28 a les 06 UTC
Vent 3 kt amb direcció variable
Visibilitat: 7000 m

TAF: OKBK 262245Z 2700/2806 VRB03KT 7000 NSC

Observacions i pronòstics meteorològics de més de 4000 aeroports (METAR i TAF).

Les estacions disponibles són els punts grocs i vermells al mapa.

Posi el ratolí al punt desitjat per veure el nom de l'estació.

Feu clic per veure les observacions i els pronòstics meteorològics.

Per canviar el mapa: feu clic els botons verds amb una creu de color negre per apropar; al botó verd amb un guió per allunyar la imatge; o en les fletxes verdes per a mapes adjacents.


METAR-TAF: